Pagina principale
METAR-TAF:

METAR-TAF

Aeroporti :

Aeroporto di Jakutsk

Jakutsk, Russia

latitudine: 62-01N, longitudine: 129-43E, altezza: 103 m

Osservazione

Il bollettino è stato emesso 37 minuti fa, alle 21:00 UTC
Vento 10 kt da ovest/nord-ovest
Temperature 6°C
Umidità 61%
Pressione 1018 hPa
Visibilità 10 km o più
nessuna nube inferiore a 1500 m e nessun cumulonembo

METAR: UEEE 202100Z 30005MPS CAVOK 06/M01 Q1018 R23L/09//60 NOSIG RMK QFE755

Ora: 06:37 (21:37 UTC)

Previsione

Il bollettino è stato emesso 1 ora e 37 minuti fa, alle 20:00 UTC
Previsione valida dal 20 alle 21 UTC al 22 alle 03 UTC
Vento 10 kt da nord-ovest con raffiche fino a 19 kt
Visibilità 10 km o più
nessuna nube inferiore a 1500 m e nessun cumulonembo
Evoluzione graduale
dal 21 alle 17 UTC al 21 alle 19 UTC
Vento 14 kt da est con raffiche fino a 23 kt

TAF: UEEE 202000Z 2021/2203 31005G10MPS CAVOK BECMG 2117/2119 10007G12MPS

Osservazioni e previsioni meteorologiche di più di 4000 aeroporti (messaggi METAR e TAF).

Le stazioni disponibili sono rappresentate dai dischi gialli e rossi sulla carta.

Puntare il mouse per vedere il nome della stazione.

Clicca sopra per visualizzare le osservazioni e previsioni meteorologiche.

Per cambiare la mappa : fare clic sui pulsanti verdi con una croce nera per ingrandire, il pulsante verde con un trattino per diminuire, o sulla freccia verde per le mappe adiacenti.


METAR-TAF: